createdAt,value
2023-03-16T00:00:33.195Z,48.82
2023-03-16T00:01:33.185Z,47.53
2023-03-16T00:04:52.957Z,46.89
2023-03-16T00:05:52.959Z,46.73
2023-03-16T00:06:52.959Z,48.50
2023-03-16T00:07:52.934Z,49.79
2023-03-16T00:08:52.921Z,49.95
2023-03-16T00:09:52.905Z,49.95
2023-03-16T00:10:52.891Z,48.82
2023-03-16T00:11:52.884Z,48.98
2023-03-16T00:12:52.871Z,49.15
2023-03-16T00:13:52.874Z,49.15
2023-03-16T00:14:52.848Z,49.31
2023-03-16T00:15:52.845Z,48.34
2023-03-16T00:16:52.834Z,47.86
2023-03-16T00:17:52.829Z,48.82
2023-03-16T00:18:52.818Z,49.31
2023-03-16T00:19:52.803Z,48.34
2023-03-16T00:20:52.813Z,48.18
2023-03-16T00:21:52.803Z,47.70
2023-03-16T00:22:52.782Z,48.02
2023-03-16T00:23:52.774Z,48.66
2023-03-16T00:24:52.828Z,49.15
2023-03-16T00:25:52.743Z,48.66
2023-03-16T00:26:52.730Z,48.50
2023-03-16T00:27:52.722Z,49.63
2023-03-16T00:28:52.717Z,49.63
2023-03-16T00:29:52.699Z,48.50
2023-03-16T00:30:52.688Z,48.34
2023-03-16T00:31:52.733Z,47.21
2023-03-16T00:32:52.712Z,46.73
2023-03-16T00:33:52.666Z,46.89
2023-03-16T00:34:52.648Z,48.34
2023-03-16T00:35:52.754Z,48.18
2023-03-16T00:36:52.620Z,48.02
2023-03-16T00:37:52.703Z,48.18
2023-03-16T00:38:52.606Z,47.37
2023-03-16T00:39:52.589Z,61.71
2023-03-16T00:40:52.571Z,46.89
2023-03-16T00:41:52.565Z,47.70
2023-03-16T00:42:52.552Z,49.15
2023-03-16T00:43:52.570Z,49.31
2023-03-16T00:44:52.529Z,49.15
2023-03-16T00:45:52.593Z,48.98
2023-03-16T00:46:52.513Z,49.15
2023-03-16T00:47:52.500Z,49.47
2023-03-16T00:48:52.488Z,49.79
2023-03-16T00:49:52.493Z,49.15
2023-03-16T00:50:52.471Z,49.15
2023-03-16T00:51:52.463Z,49.31
2023-03-16T00:52:52.442Z,48.82
2023-03-16T00:53:52.440Z,49.79
2023-03-16T00:54:52.432Z,49.47
2023-03-16T00:55:52.412Z,52.05
2023-03-16T00:56:52.401Z,50.60
2023-03-16T00:57:52.394Z,49.47
2023-03-16T00:58:52.380Z,46.89
2023-03-16T00:59:52.402Z,48.02
2023-03-16T01:00:52.387Z,48.66
2023-03-16T01:01:52.349Z,48.02
2023-03-16T01:02:52.373Z,46.73
2023-03-16T01:03:52.350Z,48.50
2023-03-16T01:04:52.334Z,47.53
2023-03-16T01:05:52.319Z,49.95
2023-03-16T01:06:52.305Z,49.47
2023-03-16T01:07:52.304Z,46.73
2023-03-16T01:08:52.287Z,46.73
2023-03-16T01:09:52.278Z,46.57
2023-03-16T01:10:52.254Z,46.73
2023-03-16T01:11:52.245Z,46.41
2023-03-16T01:12:52.230Z,45.44
2023-03-16T01:13:52.220Z,46.41
2023-03-16T01:14:52.219Z,47.53
2023-03-16T01:15:52.201Z,48.18
2023-03-16T01:16:52.325Z,48.02
2023-03-16T01:17:52.184Z,48.98
2023-03-16T01:18:52.166Z,61.87
2023-03-16T01:19:52.178Z,49.15
2023-03-16T01:20:52.152Z,49.95
2023-03-16T01:21:52.136Z,47.70
2023-03-16T01:22:52.129Z,48.82
2023-03-16T01:23:52.122Z,49.15
2023-03-16T01:24:52.120Z,48.50
2023-03-16T01:25:52.098Z,49.15
2023-03-16T01:26:52.086Z,50.92
2023-03-16T01:27:52.082Z,46.41
2023-03-16T01:28:52.070Z,46.57
2023-03-16T01:29:52.068Z,46.57
2023-03-16T01:30:52.073Z,48.82
2023-03-16T01:31:52.046Z,47.70
2023-03-16T01:32:52.052Z,47.37
2023-03-16T01:33:52.015Z,48.18
2023-03-16T01:34:52.013Z,48.02
2023-03-16T01:35:52.038Z,48.98
2023-03-16T01:36:51.989Z,59.62
2023-03-16T01:37:51.976Z,48.82
2023-03-16T01:38:51.962Z,48.02
2023-03-16T01:39:51.965Z,47.21
2023-03-16T01:40:51.947Z,49.79
2023-03-16T01:41:51.932Z,49.47
2023-03-16T01:42:51.920Z,48.82
2023-03-16T01:43:51.916Z,48.50
2023-03-16T01:44:51.906Z,48.02
2023-03-16T01:45:51.953Z,49.47
2023-03-16T01:46:51.871Z,47.70
2023-03-16T01:47:51.874Z,46.57
2023-03-16T01:48:51.868Z,49.15
2023-03-16T01:49:51.863Z,47.21
2023-03-16T01:50:51.837Z,46.73
2023-03-16T01:51:51.826Z,46.73
2023-03-16T01:52:51.815Z,47.21
2023-03-16T01:53:51.811Z,47.21
2023-03-16T01:54:51.808Z,46.89
2023-03-16T01:55:51.789Z,47.37
2023-03-16T01:56:51.782Z,47.86
2023-03-16T01:57:51.774Z,47.21
2023-03-16T01:58:51.756Z,47.70
2023-03-16T01:59:51.758Z,46.41
2023-03-16T02:00:51.730Z,48.02
2023-03-16T02:01:51.760Z,47.05
2023-03-16T02:02:51.712Z,48.50
2023-03-16T02:03:51.701Z,50.43
2023-03-16T02:04:52.693Z,48.02
2023-03-16T02:05:51.681Z,47.70
2023-03-16T02:06:51.668Z,48.02
2023-03-16T02:07:51.660Z,52.21
2023-03-16T02:08:51.653Z,49.31
2023-03-16T02:09:51.666Z,48.34
2023-03-16T02:10:51.628Z,47.05
2023-03-16T02:11:51.620Z,49.15
2023-03-16T02:12:51.615Z,48.18
2023-03-16T02:13:51.603Z,48.98
2023-03-16T02:14:51.603Z,48.98
2023-03-16T02:15:51.693Z,47.37
2023-03-16T02:16:51.572Z,47.37
2023-03-16T02:17:51.561Z,46.57
2023-03-16T02:18:51.555Z,47.05
2023-03-16T02:19:51.548Z,62.36
2023-03-16T02:20:51.530Z,48.34
2023-03-16T02:21:51.518Z,48.18
2023-03-16T02:22:51.520Z,49.31
2023-03-16T02:23:51.533Z,48.18
2023-03-16T02:24:51.506Z,46.41
2023-03-16T02:25:51.480Z,48.18
2023-03-16T02:26:51.471Z,52.37
2023-03-16T02:27:51.454Z,61.87
2023-03-16T02:28:51.444Z,59.94
2023-03-16T02:29:51.439Z,48.98
2023-03-16T02:30:51.506Z,48.50
2023-03-16T02:31:51.409Z,48.98
2023-03-16T02:32:51.448Z,49.31
2023-03-16T02:33:51.396Z,48.50
2023-03-16T02:34:51.392Z,48.02
2023-03-16T02:35:51.416Z,47.70
2023-03-16T02:36:51.362Z,47.21
2023-03-16T02:37:51.352Z,45.76
2023-03-16T02:38:51.341Z,61.71
2023-03-16T02:39:51.338Z,47.37
2023-03-16T02:40:51.319Z,58.81
2023-03-16T02:41:51.309Z,45.92
2023-03-16T02:42:51.299Z,48.02
2023-03-16T02:43:51.294Z,49.47
2023-03-16T02:44:51.284Z,50.11
2023-03-16T02:45:51.304Z,50.43
2023-03-16T02:46:51.299Z,48.18
2023-03-16T02:47:51.243Z,47.21
2023-03-16T02:48:51.232Z,49.79
2023-03-16T02:49:51.233Z,53.33
2023-03-16T02:50:51.235Z,59.46
2023-03-16T02:51:51.216Z,45.92
2023-03-16T02:52:51.194Z,46.57
2023-03-16T02:53:51.206Z,45.60
2023-03-16T02:54:51.189Z,45.92
2023-03-16T02:55:51.162Z,46.41
2023-03-16T02:56:51.145Z,47.21
2023-03-16T02:57:51.137Z,48.34
2023-03-16T02:58:51.125Z,48.98
2023-03-16T02:59:51.121Z,48.98
2023-03-16T03:00:51.115Z,47.21
2023-03-16T03:01:51.101Z,48.02
2023-03-16T03:02:51.095Z,47.70
2023-03-16T03:03:51.076Z,48.18
2023-03-16T03:04:51.068Z,50.27
2023-03-16T03:05:51.070Z,49.63
2023-03-16T03:06:51.046Z,64.94
2023-03-16T03:07:51.036Z,51.56
2023-03-16T03:08:51.025Z,50.76
2023-03-16T03:09:51.017Z,50.76
2023-03-16T03:10:51.014Z,49.79
2023-03-16T03:11:50.997Z,52.53
2023-03-16T03:12:50.984Z,61.23
2023-03-16T03:13:50.981Z,54.14
2023-03-16T03:14:50.966Z,54.95
2023-03-16T03:15:51.069Z,53.82
2023-03-16T03:16:50.949Z,53.01
2023-03-16T03:17:50.933Z,50.92
2023-03-16T03:18:50.929Z,52.21
2023-03-16T03:19:50.921Z,52.05
2023-03-16T03:20:50.919Z,53.17
2023-03-16T03:21:50.900Z,54.14
2023-03-16T03:22:50.886Z,54.14
2023-03-16T03:23:50.881Z,55.43
2023-03-16T03:24:50.874Z,54.95
2023-03-16T03:25:50.887Z,53.82
2023-03-16T03:26:50.848Z,54.62
2023-03-16T03:27:50.978Z,52.53
2023-03-16T03:28:50.830Z,53.17
2023-03-16T03:29:50.821Z,53.98
2023-03-16T03:30:50.820Z,53.33
2023-03-16T03:31:50.851Z,66.06
2023-03-16T03:32:50.824Z,53.17
2023-03-16T03:33:50.782Z,68.64
2023-03-16T03:34:50.772Z,62.20
2023-03-16T03:35:50.779Z,51.72
2023-03-16T03:36:50.749Z,58.17
2023-03-16T03:37:50.756Z,62.84
2023-03-16T03:38:50.729Z,61.23
2023-03-16T03:39:50.732Z,52.69
2023-03-16T03:40:50.724Z,60.42
2023-03-16T03:41:50.705Z,51.72
2023-03-16T03:42:50.697Z,55.43
2023-03-16T03:43:50.689Z,51.72
2023-03-16T03:44:50.673Z,49.63
2023-03-16T03:45:50.716Z,50.27
2023-03-16T03:46:50.736Z,51.08
2023-03-16T03:47:50.648Z,52.05
2023-03-16T03:48:50.635Z,49.79
2023-03-16T03:49:50.636Z,60.91
2023-03-16T03:50:50.627Z,56.07
2023-03-16T03:51:50.607Z,52.37
2023-03-16T03:52:50.594Z,62.20
2023-03-16T03:53:50.587Z,59.78
2023-03-16T03:54:50.575Z,53.17
2023-03-16T03:55:50.588Z,52.53
2023-03-16T03:56:50.553Z,61.23
2023-03-16T03:57:50.560Z,56.56
2023-03-16T03:58:50.540Z,57.04
2023-03-16T03:59:50.532Z,57.36
2023-03-16T04:00:50.527Z,62.20
2023-03-16T04:01:50.536Z,61.87
2023-03-16T04:02:50.616Z,51.72
2023-03-16T04:03:50.498Z,52.05
2023-03-16T04:04:50.481Z,56.88
2023-03-16T04:05:50.484Z,53.98
2023-03-16T04:06:50.459Z,52.85
2023-03-16T04:07:50.454Z,53.50
2023-03-16T04:08:50.441Z,57.04
2023-03-16T04:09:50.428Z,53.98
2023-03-16T04:10:50.425Z,64.13
2023-03-16T04:11:50.412Z,67.51
2023-03-16T04:12:50.398Z,60.10
2023-03-16T04:13:50.390Z,52.85
2023-03-16T04:14:50.382Z,51.40
2023-03-16T04:15:50.374Z,69.77
2023-03-16T04:16:50.414Z,60.26
2023-03-16T04:17:50.349Z,61.87
2023-03-16T04:18:50.331Z,62.68
2023-03-16T04:19:50.331Z,62.68
2023-03-16T04:20:50.328Z,61.71
2023-03-16T04:21:50.311Z,63.97
2023-03-16T04:22:50.296Z,50.92
2023-03-16T04:23:50.283Z,50.76
2023-03-16T04:24:50.271Z,50.92
2023-03-16T04:25:50.279Z,62.20
2023-03-16T04:26:50.253Z,57.69
2023-03-16T04:27:51.369Z,49.79
2023-03-16T04:28:51.355Z,56.56
2023-03-16T04:29:51.347Z,60.59
2023-03-16T04:30:51.434Z,60.42
2023-03-16T04:31:51.332Z,60.91
2023-03-16T04:32:51.390Z,60.75
2023-03-16T04:33:51.309Z,60.75
2023-03-16T04:34:51.300Z,51.24
2023-03-16T04:35:51.341Z,63.49
2023-03-16T04:36:51.281Z,60.42
2023-03-16T04:37:51.282Z,63.16
2023-03-16T04:38:51.262Z,56.56
2023-03-16T04:39:51.251Z,63.49
2023-03-16T04:40:51.253Z,60.75
2023-03-16T04:41:51.235Z,51.24
2023-03-16T04:42:51.218Z,57.36
2023-03-16T04:43:51.220Z,52.21
2023-03-16T04:44:51.205Z,63.65
2023-03-16T04:45:52.252Z,63.00
2023-03-16T04:46:51.184Z,51.08
2023-03-16T04:47:51.180Z,49.95
2023-03-16T04:48:51.167Z,54.95
2023-03-16T04:49:51.159Z,56.24
2023-03-16T04:50:51.161Z,65.10
2023-03-16T04:51:51.145Z,61.71
2023-03-16T04:52:51.132Z,61.39
2023-03-16T04:53:51.119Z,52.69
2023-03-16T04:54:51.109Z,60.59
2023-03-16T04:55:51.139Z,60.59
2023-03-16T04:56:51.090Z,58.01
2023-03-16T04:57:51.078Z,59.14
2023-03-16T04:58:51.061Z,60.75
2023-03-16T04:59:51.070Z,61.23
2023-03-16T05:00:51.066Z,64.94
2023-03-16T05:01:51.089Z,61.87
2023-03-16T05:02:51.029Z,53.17
2023-03-16T05:03:51.031Z,58.65
2023-03-16T05:04:51.009Z,62.36
2023-03-16T05:05:51.074Z,65.26
2023-03-16T05:06:51.006Z,64.61
2023-03-16T05:07:51.005Z,60.42
2023-03-16T05:08:51.153Z,58.01
2023-03-16T05:09:50.968Z,61.39
2023-03-16T05:10:50.961Z,60.42
2023-03-16T05:11:50.948Z,52.53
2023-03-16T05:12:50.935Z,60.10
2023-03-16T05:13:50.926Z,51.56
2023-03-16T05:14:50.920Z,54.95
2023-03-16T05:15:50.946Z,60.10
2023-03-16T05:16:50.913Z,61.71
2023-03-16T05:17:50.892Z,56.88
2023-03-16T05:18:50.881Z,60.59
2023-03-16T05:19:50.870Z,59.94
2023-03-16T05:20:50.862Z,62.84
2023-03-16T05:21:50.864Z,60.26
2023-03-16T05:22:50.843Z,66.71
2023-03-16T05:23:50.826Z,57.69
2023-03-16T05:24:50.820Z,53.98
2023-03-16T05:25:50.828Z,58.33
2023-03-16T05:26:50.805Z,65.90
2023-03-16T05:27:50.792Z,53.82
2023-03-16T05:28:50.782Z,56.88
2023-03-16T05:29:50.778Z,64.29
2023-03-16T05:30:50.761Z,63.00
2023-03-16T05:31:50.754Z,63.65
2023-03-16T05:32:50.770Z,66.55
2023-03-16T05:33:50.729Z,59.94
2023-03-16T05:34:50.721Z,64.94
2023-03-16T05:35:55.051Z,64.29
2023-03-16T05:36:50.706Z,61.87
2023-03-16T05:37:51.686Z,64.45
2023-03-16T05:38:50.682Z,64.13
2023-03-16T05:39:50.677Z,69.61
2023-03-16T05:40:50.648Z,65.26
2023-03-16T05:41:51.659Z,60.10
2023-03-16T05:42:50.641Z,67.51
2023-03-16T05:43:50.638Z,61.71
2023-03-16T05:44:50.624Z,61.39
2023-03-16T05:45:50.609Z,60.26
2023-03-16T05:46:50.650Z,63.65
2023-03-16T05:47:50.611Z,64.78
2023-03-16T05:48:50.589Z,63.16
2023-03-16T05:49:50.584Z,65.58
2023-03-16T05:50:50.584Z,62.68
2023-03-16T05:51:50.562Z,57.69
2023-03-16T05:52:50.540Z,65.74
2023-03-16T05:53:50.541Z,60.91
2023-03-16T05:54:50.528Z,61.87
2023-03-16T05:55:50.518Z,63.00
2023-03-16T05:56:50.512Z,61.71
2023-03-16T05:57:50.497Z,67.51
2023-03-16T05:58:50.487Z,63.16
2023-03-16T05:59:50.486Z,60.91
2023-03-16T06:00:50.469Z,62.68
2023-03-16T06:01:50.477Z,64.13
2023-03-16T06:02:50.458Z,61.39
2023-03-16T06:03:50.461Z,54.14
2023-03-16T06:04:50.481Z,64.78
2023-03-16T06:05:50.424Z,57.85
2023-03-16T06:06:50.426Z,62.68
2023-03-16T06:07:50.410Z,62.36
2023-03-16T06:08:50.394Z,61.71
2023-03-16T06:09:50.389Z,60.91
2023-03-16T06:10:50.377Z,73.80
2023-03-16T06:11:50.417Z,69.93
2023-03-16T06:12:50.358Z,59.14
2023-03-16T06:13:50.356Z,65.90
2023-03-16T06:14:50.339Z,62.04
2023-03-16T06:15:50.382Z,62.68
2023-03-16T06:16:50.331Z,69.45
2023-03-16T06:17:50.313Z,61.07
2023-03-16T06:18:50.308Z,62.20
2023-03-16T06:19:50.300Z,65.10
2023-03-16T06:20:50.277Z,63.49
2023-03-16T06:21:50.298Z,65.10
2023-03-16T06:22:50.259Z,63.16
2023-03-16T06:23:50.253Z,65.42
2023-03-16T06:24:50.239Z,66.06
2023-03-16T06:25:50.238Z,64.29
2023-03-16T06:26:50.239Z,61.55
2023-03-16T06:27:50.212Z,61.71
2023-03-16T06:28:50.201Z,64.94
2023-03-16T06:29:50.192Z,62.84
2023-03-16T06:30:50.183Z,66.06
2023-03-16T06:31:50.267Z,72.19
2023-03-16T06:32:50.186Z,63.65
2023-03-16T06:33:50.155Z,64.13
2023-03-16T06:34:50.150Z,63.00
2023-03-16T06:35:50.192Z,59.14
2023-03-16T06:36:50.152Z,66.23
2023-03-16T06:37:50.112Z,66.87
2023-03-16T06:38:51.106Z,70.25
2023-03-16T06:39:50.110Z,65.90
2023-03-16T06:40:50.092Z,60.59
2023-03-16T06:41:50.095Z,66.55
2023-03-16T06:42:51.404Z,64.78
2023-03-16T06:43:50.071Z,68.32
2023-03-16T06:44:50.063Z,59.94
2023-03-16T06:45:50.094Z,62.20
2023-03-16T06:46:50.044Z,55.27
2023-03-16T06:47:50.734Z,64.78
2023-03-16T06:48:50.012Z,70.90
2023-03-16T06:49:49.999Z,67.03
2023-03-16T06:50:49.993Z,61.55
2023-03-16T06:51:49.993Z,60.75
2023-03-16T06:52:49.984Z,58.97
2023-03-16T06:53:49.970Z,62.20
2023-03-16T06:54:49.962Z,61.87
2023-03-16T06:55:49.959Z,60.10
2023-03-16T06:56:49.954Z,61.71
2023-03-16T06:57:49.932Z,69.45
2023-03-16T06:58:49.919Z,61.39
2023-03-16T07:00:04.761Z,60.26
2023-03-16T07:00:52.763Z,57.36
2023-03-16T07:01:50.292Z,63.49
2023-03-16T07:02:49.931Z,63.00
2023-03-16T07:03:49.907Z,60.42
2023-03-16T07:04:50.864Z,61.71
2023-03-16T07:05:49.929Z,60.91
2023-03-16T07:06:50.743Z,62.68
2023-03-16T07:07:56.671Z,54.46
2023-03-16T07:08:50.147Z,63.81
2023-03-16T07:09:49.861Z,65.26
2023-03-16T07:10:49.832Z,60.42
2023-03-16T07:11:49.804Z,65.74
2023-03-16T07:12:49.913Z,67.03
2023-03-16T07:13:50.769Z,63.00
2023-03-16T07:14:53.651Z,53.01
2023-03-16T07:15:50.969Z,63.65
2023-03-16T07:16:49.813Z,61.71
2023-03-16T07:17:49.891Z,62.04
2023-03-16T07:19:17.356Z,61.07
2023-03-16T07:19:49.772Z,60.91
2023-03-16T07:20:49.727Z,62.20
2023-03-16T07:21:49.732Z,73.48
2023-03-16T07:22:49.685Z,60.75
2023-03-16T07:23:49.746Z,61.39
2023-03-16T07:24:49.692Z,59.62
2023-03-16T07:25:49.762Z,60.59
2023-03-16T07:26:49.678Z,67.35
2023-03-16T07:27:51.911Z,58.17
2023-03-16T07:28:50.628Z,58.97
2023-03-16T07:29:49.638Z,62.04
2023-03-16T07:31:02.824Z,62.04
2023-03-16T07:31:51.655Z,65.10
2023-03-16T07:32:49.695Z,60.26
2023-03-16T07:33:49.599Z,62.52
2023-03-16T07:34:49.601Z,65.10
2023-03-16T07:35:49.618Z,62.68
2023-03-16T07:36:49.635Z,62.20
2023-03-16T07:37:49.533Z,62.04
2023-03-16T07:38:49.531Z,60.75
2023-03-16T07:39:49.524Z,59.94
2023-03-16T07:40:49.566Z,57.69
2023-03-16T07:41:49.512Z,65.10
2023-03-16T07:42:49.520Z,64.13
2023-03-16T07:43:49.481Z,61.07
2023-03-16T07:44:51.670Z,63.81
2023-03-16T07:45:49.512Z,70.58
2023-03-16T07:46:49.458Z,63.81
2023-03-16T07:47:49.449Z,64.29
2023-03-16T07:48:49.457Z,68.32
2023-03-16T07:49:49.458Z,62.20
2023-03-16T07:50:49.429Z,65.74
2023-03-16T07:51:49.416Z,66.55
2023-03-16T07:52:49.455Z,62.68
2023-03-16T07:53:49.399Z,61.07
2023-03-16T07:54:49.397Z,65.90
2023-03-16T07:55:49.360Z,69.13
2023-03-16T07:56:50.022Z,66.23
2023-03-16T07:57:50.407Z,62.68
2023-03-16T07:58:49.365Z,63.49
2023-03-16T07:59:49.342Z,61.71
2023-03-16T08:00:49.327Z,65.58
2023-03-16T08:01:49.341Z,63.16
2023-03-16T08:02:49.361Z,61.39
2023-03-16T08:03:49.328Z,60.59
2023-03-16T08:04:49.323Z,62.36
2023-03-16T08:05:49.263Z,62.68
2023-03-16T08:06:49.321Z,61.23
2023-03-16T08:07:49.256Z,59.14
2023-03-16T08:08:49.262Z,62.52
2023-03-16T08:09:49.257Z,62.04
2023-03-16T08:10:49.236Z,62.04
2023-03-16T08:11:49.205Z,63.81
2023-03-16T08:12:49.240Z,60.59
2023-03-16T08:13:49.179Z,71.06
2023-03-16T08:14:49.194Z,58.97
2023-03-16T08:15:49.214Z,74.60
2023-03-16T08:16:49.161Z,63.33
2023-03-16T08:17:49.166Z,65.58
2023-03-16T08:18:49.146Z,56.56
2023-03-16T08:19:49.144Z,65.58
2023-03-16T08:20:49.147Z,67.51
2023-03-16T08:22:00.969Z,59.14
2023-03-16T08:22:51.117Z,58.81
2023-03-16T08:23:49.089Z,61.39
2023-03-16T08:24:49.090Z,59.62
2023-03-16T08:25:49.066Z,58.33
2023-03-16T08:26:49.065Z,65.10
2023-03-16T08:27:49.069Z,64.45
2023-03-16T08:28:49.110Z,63.16
2023-03-16T08:29:49.025Z,62.52
2023-03-16T08:30:49.173Z,64.13
2023-03-16T08:31:49.041Z,61.87
2023-03-16T08:32:49.025Z,60.91
2023-03-16T08:33:49.006Z,59.94
2023-03-16T08:34:49.027Z,68.96
2023-03-16T08:35:49.084Z,63.65
2023-03-16T08:36:48.982Z,62.36
2023-03-16T08:37:49.010Z,65.42
2023-03-16T08:39:05.538Z,62.84
2023-03-16T08:39:50.934Z,61.71
2023-03-16T08:40:48.983Z,60.91
2023-03-16T08:41:48.925Z,60.75
2023-03-16T08:42:48.946Z,61.71
2023-03-16T08:43:48.893Z,66.23
2023-03-16T08:44:55.813Z,61.55
2023-03-16T08:45:48.872Z,65.90
2023-03-16T08:46:48.977Z,60.59
2023-03-16T08:48:04.183Z,59.30
2023-03-16T08:48:48.919Z,62.52
2023-03-16T08:49:48.860Z,56.72
2023-03-16T08:50:48.889Z,64.61
2023-03-16T08:51:48.846Z,59.94
2023-03-16T08:52:48.822Z,68.64
2023-03-16T08:53:48.832Z,57.69
2023-03-16T08:55:02.010Z,58.33
2023-03-16T08:55:57.260Z,61.71
2023-03-16T08:56:48.783Z,60.75
2023-03-16T08:57:49.707Z,68.64
2023-03-16T08:58:50.554Z,63.00
2023-03-16T08:59:48.755Z,61.39
2023-03-16T09:00:50.528Z,62.52
2023-03-16T09:01:49.815Z,49.95
2023-03-16T09:02:49.731Z,58.81
2023-03-16T09:03:48.706Z,55.59
2023-03-16T09:04:48.714Z,66.06
2023-03-16T09:05:48.679Z,54.14
2023-03-16T09:06:55.842Z,62.36
2023-03-16T09:07:50.682Z,60.26
2023-03-16T09:08:48.649Z,61.55
2023-03-16T09:09:48.651Z,48.50
2023-03-16T09:10:48.630Z,55.11
2023-03-16T09:11:48.624Z,60.75
2023-03-16T09:12:48.628Z,60.26
2023-03-16T09:13:48.936Z,66.55
2023-03-16T09:14:48.593Z,60.42
2023-03-16T09:15:48.649Z,60.91
2023-03-16T09:16:48.581Z,49.95
2023-03-16T09:17:48.627Z,60.10
2023-03-16T09:18:48.564Z,60.75
2023-03-16T09:19:51.717Z,63.49
2023-03-16T09:20:49.551Z,48.34
2023-03-16T09:21:49.534Z,61.87
2023-03-16T09:22:48.521Z,61.71
2023-03-16T09:24:12.735Z,62.20
2023-03-16T09:25:20.191Z,60.26
2023-03-16T09:25:48.497Z,58.97
2023-03-16T09:26:48.502Z,48.02
2023-03-16T09:27:48.512Z,49.47
2023-03-16T09:28:48.461Z,49.47
2023-03-16T09:29:48.453Z,65.42
2023-03-16T09:30:48.442Z,48.66
2023-03-16T09:31:48.462Z,62.04
2023-03-16T09:32:48.461Z,63.16
2023-03-16T09:33:48.447Z,61.55
2023-03-16T09:34:48.408Z,69.77
2023-03-16T09:35:48.421Z,59.46
2023-03-16T09:36:48.531Z,61.87
2023-03-16T09:38:05.121Z,48.66
2023-03-16T09:38:50.414Z,60.26
2023-03-16T09:39:48.395Z,59.30
2023-03-16T09:40:48.379Z,61.23
2023-03-16T09:41:48.353Z,61.55
2023-03-16T09:42:48.345Z,55.11
2023-03-16T09:43:48.348Z,59.46
2023-03-16T09:44:48.348Z,56.24
2023-03-16T09:45:48.376Z,61.39
2023-03-16T09:46:48.323Z,57.69
2023-03-16T09:47:48.291Z,57.04
2023-03-16T09:48:48.299Z,61.71
2023-03-16T09:49:48.273Z,58.49
2023-03-16T09:50:49.629Z,60.75
2023-03-16T09:51:49.267Z,61.07
2023-03-16T09:52:48.257Z,57.04
2023-03-16T09:53:48.227Z,59.14
2023-03-16T09:54:48.215Z,65.58
2023-03-16T09:59:40.705Z,62.36
2023-03-16T10:00:40.689Z,58.81
2023-03-16T10:01:40.666Z,55.59
2023-03-16T10:02:40.666Z,58.33
2023-03-16T10:03:40.666Z,59.78
2023-03-16T10:04:40.657Z,62.04
2023-03-16T10:05:40.654Z,53.82
2023-03-16T10:06:40.632Z,59.46
2023-03-16T10:07:40.592Z,63.81
2023-03-16T10:08:40.863Z,62.04
2023-03-16T10:09:40.577Z,58.81
2023-03-16T10:10:40.580Z,57.85
2023-03-16T10:11:40.558Z,59.14
2023-03-16T10:12:40.570Z,60.26
2023-03-16T10:13:40.547Z,60.42
2023-03-16T10:14:40.563Z,59.94
2023-03-16T10:15:40.503Z,59.78
2023-03-16T10:16:40.588Z,61.07
2023-03-16T10:17:40.590Z,64.13
2023-03-16T10:18:40.515Z,60.75
2023-03-16T10:19:40.490Z,61.55
2023-03-16T10:20:40.503Z,65.58
2023-03-16T10:21:40.454Z,53.98
2023-03-16T10:22:40.444Z,64.61
2023-03-16T10:23:41.590Z,61.87
2023-03-16T10:24:40.447Z,48.98
2023-03-16T10:25:40.407Z,61.07
2023-03-16T10:26:40.394Z,66.06
2023-03-16T10:27:40.410Z,61.39
2023-03-16T10:28:40.414Z,60.42
2023-03-16T10:29:40.360Z,60.26
2023-03-16T10:30:41.855Z,63.33
2023-03-16T10:31:40.411Z,53.98
2023-03-16T10:32:40.360Z,60.91
2023-03-16T10:33:40.355Z,56.72
2023-03-16T10:34:40.331Z,58.17
2023-03-16T10:35:40.307Z,63.97
2023-03-16T10:36:40.325Z,60.59
2023-03-16T10:37:40.294Z,62.84
2023-03-16T10:38:40.384Z,60.75
2023-03-16T10:39:40.288Z,66.39
2023-03-16T10:40:40.305Z,59.30
2023-03-16T10:41:40.241Z,58.17
2023-03-16T10:42:40.245Z,58.49
2023-03-16T10:43:40.263Z,61.07
2023-03-16T10:44:40.248Z,54.14
2023-03-16T10:45:40.245Z,60.26
2023-03-16T10:46:40.398Z,63.65
2023-03-16T10:47:40.187Z,62.36
2023-03-16T10:48:40.189Z,58.49
2023-03-16T10:49:40.169Z,57.52
2023-03-16T10:50:40.176Z,49.95
2023-03-16T10:51:40.171Z,61.87
2023-03-16T10:52:40.158Z,60.59
2023-03-16T10:53:40.144Z,59.78
2023-03-16T10:54:40.244Z,62.84
2023-03-16T10:55:54.819Z,61.87
2023-03-16T10:56:40.128Z,52.85
2023-03-16T10:57:40.260Z,63.65
2023-03-16T11:01:06.074Z,61.55
2023-03-16T11:02:06.050Z,60.75
2023-03-16T11:03:06.033Z,55.27
2023-03-16T11:04:06.060Z,63.00
2023-03-16T11:05:06.046Z,58.65
2023-03-16T11:06:05.995Z,60.91
2023-03-16T11:07:05.989Z,65.10
2023-03-16T11:08:05.976Z,57.04
2023-03-16T11:09:06.470Z,47.53
2023-03-16T11:10:05.979Z,58.33
2023-03-16T11:11:05.955Z,63.33
2023-03-16T11:12:05.953Z,60.91
2023-03-16T11:13:05.945Z,65.26
2023-03-16T11:14:05.938Z,63.49
2023-03-16T11:15:09.382Z,60.59
2023-03-16T11:16:06.906Z,53.82
2023-03-16T11:17:05.937Z,61.07
2023-03-16T11:18:05.889Z,62.84
2023-03-16T11:19:05.906Z,60.91
2023-03-16T11:20:05.851Z,60.75
2023-03-16T11:21:05.866Z,61.07
2023-03-16T11:22:05.824Z,59.78
2023-03-16T11:23:05.842Z,61.23
2023-03-16T11:24:05.855Z,58.81
2023-03-16T11:25:05.797Z,59.62
2023-03-16T11:26:05.800Z,55.91
2023-03-16T11:27:05.772Z,58.81
2023-03-16T11:28:05.759Z,61.55
2023-03-16T11:29:05.765Z,48.98
2023-03-16T11:30:06.238Z,60.75
2023-03-16T11:31:05.776Z,68.00
2023-03-16T11:32:05.749Z,65.58
2023-03-16T11:33:05.800Z,64.29
2023-03-16T11:34:05.900Z,53.66
2023-03-16T11:35:05.708Z,46.89
2023-03-16T11:36:05.699Z,58.81
2023-03-16T11:37:05.687Z,66.06
2023-03-16T11:38:05.660Z,58.81
2023-03-16T11:39:05.682Z,58.81
2023-03-16T11:40:05.688Z,63.00
2023-03-16T11:41:05.661Z,62.20
2023-03-16T11:42:05.635Z,65.42
2023-03-16T11:43:05.607Z,69.45
2023-03-16T11:44:05.646Z,63.65
2023-03-16T11:45:05.663Z,71.54
2023-03-16T11:46:05.628Z,60.26
2023-03-16T11:47:05.588Z,63.49
2023-03-16T11:48:05.562Z,61.39
2023-03-16T12:34:40.251Z,58.81
2023-03-16T12:35:40.271Z,59.78
2023-03-16T12:36:40.233Z,55.91
2023-03-16T12:37:40.227Z,57.04
2023-03-16T12:38:40.251Z,61.39
2023-03-16T12:39:40.306Z,62.52
2023-03-16T12:40:40.720Z,61.55
2023-03-16T12:41:40.185Z,61.71
2023-03-16T12:42:40.166Z,61.07
2023-03-16T12:43:40.168Z,65.90
2023-03-16T12:44:40.154Z,62.52
2023-03-16T12:45:40.178Z,60.42
2023-03-16T12:46:41.336Z,60.59
2023-03-16T12:47:41.309Z,62.52
2023-03-16T12:48:41.272Z,60.26
2023-03-16T12:49:41.355Z,62.04
2023-03-16T12:50:41.318Z,59.30
2023-03-16T12:51:41.303Z,60.75
2023-03-16T12:52:41.223Z,56.56
2023-03-16T12:53:41.254Z,61.71
2023-03-16T12:54:42.180Z,61.87
2023-03-16T12:55:41.224Z,61.71
2023-03-16T12:56:41.196Z,61.87
2023-03-16T12:57:41.207Z,64.94
2023-03-16T12:58:41.180Z,71.38
2023-03-16T12:59:41.211Z,61.39
2023-03-16T13:00:41.289Z,58.17
2023-03-16T13:01:41.264Z,60.91
2023-03-16T13:02:41.169Z,68.80
2023-03-16T13:03:41.506Z,73.96
2023-03-16T13:04:41.173Z,62.52
2023-03-16T13:05:41.128Z,59.46
2023-03-16T13:06:41.209Z,63.81
2023-03-16T13:07:41.153Z,61.55
2023-03-16T13:08:41.102Z,62.84
2023-03-16T13:09:41.104Z,65.10
2023-03-16T13:10:41.183Z,62.36
2023-03-16T13:11:41.143Z,61.23
2023-03-16T13:12:41.090Z,58.01
2023-03-16T13:13:41.103Z,66.23
2023-03-16T13:14:41.172Z,61.07
2023-03-16T13:15:41.147Z,60.10
2023-03-16T13:16:41.207Z,58.01
2023-03-16T13:17:41.136Z,61.39
2023-03-16T13:18:40.990Z,63.00
2023-03-16T13:19:41.025Z,59.94
2023-03-16T13:20:41.039Z,54.62
2023-03-16T13:21:41.057Z,62.52
2023-03-16T13:22:41.114Z,59.46
2023-03-16T13:23:41.074Z,59.78
2023-03-16T13:24:40.980Z,58.65
2023-03-16T13:25:40.934Z,59.46
2023-03-16T13:26:40.940Z,63.33
2023-03-16T13:27:40.969Z,66.71
2023-03-16T13:28:40.908Z,55.59
2023-03-16T13:29:40.874Z,63.33
2023-03-16T13:30:40.947Z,58.17
2023-03-16T13:31:40.929Z,60.75
2023-03-16T13:32:40.947Z,56.40
2023-03-16T13:33:41.960Z,58.65
2023-03-16T13:34:40.863Z,67.19
2023-03-16T13:35:40.991Z,62.36
2023-03-16T13:36:40.867Z,53.33
2023-03-16T13:37:40.838Z,62.04
2023-03-16T13:38:40.822Z,64.13
2023-03-16T13:39:40.774Z,63.97
2023-03-16T13:40:40.823Z,57.85
2023-03-16T13:41:43.207Z,56.56
2023-03-16T13:42:40.838Z,60.10
2023-03-16T13:43:40.780Z,62.84
2023-03-16T13:44:40.813Z,61.39
2023-03-16T13:45:40.734Z,61.55
2023-03-16T13:46:40.737Z,60.42